Time;durP1;ratioP1;P1;durP2;ratioP2;P2;SDS_P1;SDS_P2;PMS_P1;PMS_P2;Temp;Humidity;BMP_temperature;BMP_pressure;BME280_temperature;BME280_humidity;BME280_pressure;Samples;Min_cycle;Max_cycle;Signal;HPM_P1;HPM_P2
2022/12/01 00:01:19;;;;;;;18.55;12.60;;;;;;;1.58;72.03;102501.68;1815190;77;25746;-61
2022/12/01 00:03:46;;;;;;;16.07;10.00;;;;;;;1.53;71.55;102493.83;1818724;77;25785;-61
2022/12/01 00:06:17;;;;;;;14.60;9.65;;;;;;;1.47;71.92;102510.78;1813912;79;25722;-61
2022/12/01 00:11:34;;;;;;;19.42;10.50;;;;;;;1.51;72.09;102512.44;1822710;78;25678;-61
2022/12/01 00:14:02;;;;;;;18.90;10.78;;;;;;;1.53;72.12;102513.28;1816949;78;25706;-61
2022/12/01 00:16:30;;;;;;;21.75;10.90;;;;;;;1.52;72.05;102510.67;1815771;78;25737;-61
2022/12/01 00:18:57;;;;;;;16.67;10.25;;;;;;;1.48;72.16;102520.45;1823062;78;25690;-61
2022/12/01 00:21:25;;;;;;;21.02;10.58;;;;;;;1.47;72.20;102517.41;1819426;78;28484;-61
2022/12/01 00:23:55;;;;;;;20.48;11.03;;;;;;;1.45;72.15;102511.27;1814756;78;25773;-62
2022/12/01 00:26:24;;;;;;;16.93;10.38;;;;;;;1.38;72.08;102518.47;1812116;78;25784;-62
2022/12/01 00:28:56;;;;;;;23.57;9.80;;;;;;;1.32;72.30;102516.40;1816223;77;25978;-62
2022/12/01 00:31:23;;;;;;;22.67;10.50;;;;;;;1.29;72.59;102509.86;1815939;77;25734;-61
2022/12/01 00:33:49;;;;;;;18.00;10.68;;;;;;;1.27;72.75;102510.33;1818258;78;27473;-62
2022/12/01 00:36:16;;;;;;;19.05;11.25;;;;;;;1.23;72.89;102512.19;1816679;78;25999;-62
2022/12/01 00:38:43;;;;;;;22.77;10.55;;;;;;;1.21;73.11;102514.84;1815684;78;25702;-61
2022/12/01 00:41:10;;;;;;;20.55;11.03;;;;;;;1.20;73.11;102510.48;1815972;78;25789;-61
2022/12/01 00:43:38;;;;;;;17.80;9.48;;;;;;;1.20;73.19;102503.84;1816253;78;25760;-61
2022/12/01 00:46:06;;;;;;;19.05;9.88;;;;;;;1.24;73.10;102508.63;1816112;78;27556;-61
2022/12/01 00:48:33;;;;;;;16.57;10.20;;;;;;;1.22;73.03;102500.69;1816190;79;25692;-61
2022/12/01 00:50:59;;;;;;;16.77;9.73;;;;;;;1.25;72.81;102507.73;1821669;78;25472;-61
2022/12/01 00:53:26;;;;;;;14.15;9.28;;;;;;;1.24;72.92;102502.00;1801214;78;25892;-61
2022/12/01 00:55:53;;;;;;;24.72;9.83;;;;;;;1.27;72.98;102502.38;1817420;78;25691;-61
2022/12/01 00:58:21;;;;;;;21.37;10.58;;;;;;;1.25;72.86;102492.67;1790079;78;28502;-61
2022/12/01 01:00:48;;;;;;;17.55;10.58;;;;;;;1.20;72.73;102501.20;1786677;80;25714;-61
2022/12/01 01:03:16;;;;;;;18.80;9.83;;;;;;;1.17;72.93;102495.95;1814658;78;26368;-62
2022/12/01 01:05:43;;;;;;;17.17;10.45;;;;;;;1.19;72.79;102495.91;1815712;78;26455;-61
2022/12/01 01:08:13;;;;;;;23.75;11.90;;;;;;;1.15;72.61;102496.43;1799699;77;25757;-61
2022/12/01 01:10:43;;;;;;;19.90;10.82;;;;;;;1.12;72.51;102489.00;1815861;78;27448;-62
2022/12/01 01:13:12;;;;;;;19.23;10.75;;;;;;;1.09;72.84;102482.84;1800530;78;25889;-62
2022/12/01 01:15:40;;;;;;;16.95;10.72;;;;;;;1.09;72.76;102480.20;1789946;78;25838;-61
2022/12/01 01:18:08;;;;;;;20.05;10.90;;;;;;;1.09;72.88;102475.36;1807834;78;26743;-61
2022/12/01 01:20:35;;;;;;;19.87;11.38;;;;;;;1.09;72.83;102480.66;1786786;80;25695;-61
2022/12/01 01:23:02;;;;;;;17.25;11.05;;;;;;;1.07;72.98;102489.09;1805103;78;27537;-61
2022/12/01 01:25:32;;;;;;;23.77;12.33;;;;;;;1.06;72.97;102494.86;1795791;77;25796;-62
2022/12/01 01:27:59;;;;;;;21.90;13.35;;;;;;;1.08;73.37;102496.14;1802628;78;25746;-61
2022/12/01 01:30:26;;;;;;;23.57;12.68;;;;;;;1.17;73.54;102497.28;1809052;77;25942;-61
2022/12/01 01:32:53;;;;;;;25.15;11.05;;;;;;;1.22;73.71;102488.76;1817130;78;25965;-61
2022/12/01 01:35:20;;;;;;;22.58;12.13;;;;;;;1.25;73.46;102483.40;1804817;78;27466;-62
2022/12/01 01:37:48;;;;;;;24.70;11.95;;;;;;;1.25;73.63;102484.72;1806861;77;26385;-61
2022/12/01 01:40:16;;;;;;;19.23;11.30;;;;;;;1.34;73.94;102482.34;1805848;78;26771;-62
2022/12/01 01:42:42;;;;;;;19.48;11.78;;;;;;;1.44;74.00;102479.45;1823750;78;25964;-61
2022/12/01 01:45:28;;;;;;;18.60;11.05;;;;;;;1.46;73.32;102477.20;1822388;78;25661;-61
2022/12/01 01:47:58;;;;;;;25.00;12.20;;;;;;;1.44;73.27;102478.13;1822085;78;27497;-61
2022/12/01 01:50:27;;;;;;;21.23;12.30;;;;;;;1.35;73.22;102472.12;1822573;78;25726;-61
2022/12/01 01:53:05;;;;;;;22.80;11.75;;;;;;;1.29;73.20;102470.94;1822487;78;25750;-62
2022/12/01 01:55:35;;;;;;;24.52;12.23;;;;;;;1.24;73.22;102481.65;1816689;78;26625;-61
2022/12/01 01:58:06;;;;;;;25.82;12.73;;;;;;;1.15;73.14;102493.78;1800455;78;25644;-61
2022/12/01 02:00:35;;;;;;;20.45;11.90;;;;;;;1.09;73.35;102493.92;1822249;78;27408;-61
2022/12/01 02:03:03;;;;;;;21.48;12.82;;;;;;;1.11;73.60;102489.46;1822989;78;25737;-62
2022/12/01 02:05:33;;;;;;;19.07;10.75;;;;;;;1.12;73.70;102489.86;1819850;78;25699;-62
2022/12/01 02:08:02;;;;;;;26.05;12.05;;;;;;;1.12;73.64;102483.23;1828464;78;25793;-61
2022/12/01 02:11:07;;;;;;;22.30;11.88;;;;;;;1.12;73.58;102477.07;1824225;78;25955;-62
2022/12/01 02:14:06;;;;;;;18.92;12.25;;;;;;;1.11;73.66;102469.58;1817276;78;29530;-62
2022/12/01 02:16:54;;;;;;;24.50;12.35;;;;;;;1.13;73.81;102473.52;1794296;78;26144;-62
2022/12/01 02:19:44;;;;;;;20.35;12.03;;;;;;;1.09;73.78;102479.34;1819463;77;25743;-62
2022/12/01 02:22:31;;;;;;;19.50;11.12;;;;;;;1.08;74.00;102473.61;1857148;77;25863;-60
2022/12/01 02:25:44;;;;;;;23.55;12.60;;;;;;;1.15;74.30;102479.20;1824576;77;27445;-63
2022/12/01 02:28:34;;;;;;;19.20;11.70;;;;;;;1.21;74.38;102475.08;1822050;78;27544;-61
2022/12/01 02:31:12;;;;;;;20.92;12.47;;;;;;;1.27;73.99;102469.23;1825967;78;25822;-61
2022/12/01 02:33:52;;;;;;;24.47;12.43;;;;;;;1.19;73.76;102470.28;1822464;78;25730;-62
2022/12/01 02:36:34;;;;;;;23.00;13.28;;;;;;;1.19;74.09;102466.75;1819310;78;25808;-61
2022/12/01 02:39:18;;;;;;;21.55;12.15;;;;;;;1.21;73.96;102465.80;1805099;78;25808;-61
2022/12/01 02:42:00;;;;;;;21.12;13.55;;;;;;;1.24;73.85;102467.06;1793810;78;27571;-61
2022/12/01 02:44:39;;;;;;;23.15;12.95;;;;;;;1.24;73.56;102467.06;1792114;78;26247;-61
2022/12/01 02:47:13;;;;;;;28.50;14.47;;;;;;;1.19;73.30;102468.96;1793665;78;25710;-61
2022/12/01 02:49:48;;;;;;;26.05;14.68;;;;;;;1.13;73.19;102480.14;1814884;78;25801;-61
2022/12/01 02:52:17;;;;;;;30.02;13.98;;;;;;;1.13;73.57;102477.49;1792823;78;25590;-61
2022/12/01 02:54:47;;;;;;;22.62;13.25;;;;;;;1.17;73.74;102473.42;1821065;77;28161;-61
2022/12/01 02:57:16;;;;;;;31.40;14.13;;;;;;;1.17;73.50;102453.53;1822542;78;25477;-61
2022/12/01 02:59:47;;;;;;;29.12;14.60;;;;;;;1.09;73.56;102454.16;1800990;78;25710;-61
2022/12/01 03:02:59;;;;;;;28.00;13.98;;;;;;;1.07;73.71;102463.48;1810206;78;28080;-61
2022/12/01 03:05:47;;;;;;;26.85;14.18;;;;;;;1.09;74.02;102465.62;1822032;78;25749;-61
2022/12/01 03:08:48;;;;;;;25.80;14.35;;;;;;;1.09;73.89;102459.46;1795726;78;27433;-62
2022/12/01 03:11:27;;;;;;;26.50;13.90;;;;;;;1.08;74.22;102465.19;1792637;78;25699;-61
2022/12/01 03:14:23;;;;;;;30.72;14.90;;;;;;;1.08;74.30;102463.02;1824961;77;25789;-61
2022/12/01 03:16:53;;;;;;;32.17;15.50;;;;;;;1.06;74.26;102464.81;1821634;78;25785;-61
2022/12/01 03:19:25;;;;;;;24.65;13.60;;;;;;;1.06;73.99;102470.12;1826468;78;25409;-61
2022/12/01 03:22:14;;;;;;;24.15;12.95;;;;;;;1.04;74.06;102464.86;1814895;77;28342;-61
2022/12/01 03:24:45;;;;;;;31.97;13.55;;;;;;;1.04;73.99;102471.48;1792873;80;25803;-62
2022/12/01 03:27:15;;;;;;;26.85;13.93;;;;;;;1.08;73.96;102465.66;1795375;78;25766;-61
2022/12/01 03:29:46;;;;;;;28.57;13.72;;;;;;;1.12;74.07;102465.14;1821895;78;25686;-61
2022/12/01 03:32:34;;;;;;;43.13;14.78;;;;;;;1.16;73.95;102467.69;1822483;78;25706;-62
2022/12/01 03:35:18;;;;;;;27.00;14.40;;;;;;;1.10;73.75;102474.46;1797043;78;27500;-61
2022/12/01 03:37:48;;;;;;;;;;;;;;;1.04;73.61;102474.57;1795294;80;25866;-62
2022/12/01 03:40:21;;;;;;;33.28;15.10;;;;;;;1.05;73.86;102482.95;1797208;78;25675;-61
2022/12/01 03:42:56;;;;;;;25.68;14.63;;;;;;;1.02;73.88;102487.01;1826410;77;25906;-62
2022/12/01 03:46:00;;;;;;;30.77;13.35;;;;;;;0.96;73.90;102484.46;1820733;78;25757;-61
2022/12/01 03:48:29;;;;;;;26.30;13.62;;;;;;;0.93;74.17;102483.64;1822598;78;27462;-61
2022/12/01 03:51:18;;;;;;;23.27;13.50;;;;;;;0.88;74.26;102471.39;1822187;78;25445;-61
2022/12/01 03:53:58;;;;;;;37.42;14.25;;;;;;;0.82;74.38;102476.36;1808981;78;37024;-61
2022/12/01 03:56:30;;;;;;;25.25;13.95;;;;;;;0.82;74.53;102475.47;1798246;78;25814;-61
2022/12/01 03:59:00;;;;;;;25.52;14.68;;;;;;;0.73;74.53;102468.59;1794815;78;25801;-61
2022/12/01 04:01:31;;;;;;;25.43;13.68;;;;;;;0.71;74.72;102474.37;1795636;78;27474;-61
2022/12/01 04:04:12;;;;;;;29.72;14.18;;;;;;;0.69;74.70;102477.06;1792516;80;25785;-61
2022/12/01 04:06:44;;;;;;;27.07;13.40;;;;;;;0.63;74.65;102483.78;1815278;78;25708;-61
2022/12/01 04:09:13;;;;;;;27.80;13.88;;;;;;;0.59;74.62;102484.29;1822960;78;26542;-61
2022/12/01 04:14:25;;;;;;;26.05;11.93;;;;;;;0.71;74.84;102471.72;1822697;78;27448;-61
2022/12/01 04:16:52;;;;;;;25.85;13.08;;;;;;;0.72;74.75;102472.14;1822025;78;25765;-61
2022/12/01 04:19:18;;;;;;;24.82;12.82;;;;;;;0.75;74.76;102473.42;1825421;78;25690;-61
2022/12/01 04:21:45;;;;;;;25.08;12.65;;;;;;;0.71;74.33;102472.61;1823161;78;25781;-61
2022/12/01 04:24:12;;;;;;;24.30;13.00;;;;;;;0.66;74.55;102477.58;1822062;78;25822;-61
2022/12/01 04:26:40;;;;;;;28.02;14.28;;;;;;;0.69;74.58;102481.03;1800017;78;27483;-61
2022/12/01 04:29:11;;;;;;;22.67;12.18;;;;;;;0.70;74.52;102483.22;1794491;78;25800;-61
2022/12/01 04:31:38;;;;;;;25.05;13.03;;;;;;;0.72;74.54;102482.73;1822365;78;25657;-61
2022/12/01 04:34:06;;;;;;;34.70;14.58;;;;;;;0.70;74.36;102486.75;1823233;78;25785;-61
2022/12/01 04:36:34;;;;;;;27.37;14.25;;;;;;;0.64;74.44;102488.64;1823357;78;25705;-62
2022/12/01 04:39:02;;;;;;;37.65;14.60;;;;;;;0.58;74.37;102485.66;1821711;78;27446;-61
2022/12/01 04:41:29;;;;;;;33.20;15.00;;;;;;;0.57;74.43;102480.83;1823231;78;25700;-62
2022/12/01 04:43:57;;;;;;;35.88;13.68;;;;;;;0.60;74.59;102477.23;1829058;78;25781;-61
2022/12/01 04:46:24;;;;;;;25.45;13.45;;;;;;;0.63;74.31;102482.45;1823402;77;25824;-61
2022/12/01 04:48:53;;;;;;;28.98;13.48;;;;;;;0.66;73.95;102489.49;1809112;78;25711;-61
2022/12/01 04:51:21;;;;;;;26.42;13.25;;;;;;;0.60;73.83;102481.21;1813587;78;27452;-61
2022/12/01 04:53:49;;;;;;;36.45;14.73;;;;;;;0.58;73.91;102485.19;1826893;77;25991;-62
2022/12/01 04:56:16;;;;;;;30.12;13.60;;;;;;;0.58;74.05;102493.59;1799039;78;25852;-61
2022/12/01 04:58:49;;;;;;;35.03;14.43;;;;;;;0.60;74.14;102488.69;1821312;78;26448;-61
2022/12/01 05:01:18;;;;;;;31.85;14.35;;;;;;;0.61;74.25;102486.47;1827229;78;25481;-61
2022/12/01 05:03:51;;;;;;;27.45;14.18;;;;;;;0.66;74.17;102492.14;1822514;78;28395;-62
2022/12/01 05:06:23;;;;;;;35.00;14.30;;;;;;;0.69;74.15;102496.03;1820426;78;25722;-62
2022/12/01 05:08:52;;;;;;;35.40;15.15;;;;;;;0.71;74.26;102495.13;1793540;78;25802;-62
2022/12/01 05:11:19;;;;;;;32.70;14.07;;;;;;;0.73;74.00;102495.09;1802268;78;25780;-62
2022/12/01 05:13:49;;;;;;;37.33;14.05;;;;;;;0.74;74.10;102483.13;1822286;78;25661;-62
2022/12/01 05:16:24;;;;;;;26.30;14.40;;;;;;;0.75;72.95;102486.66;1825509;77;28047;-61
2022/12/01 05:21:44;;;;;;;32.67;13.18;;;;;;;0.59;72.71;102489.59;1821963;77;25695;-61
2022/12/01 05:24:12;;;;;;;31.90;14.15;;;;;;;0.51;72.96;102494.16;1822221;78;25755;-61
2022/12/01 05:26:44;;;;;;;33.63;13.83;;;;;;;0.49;72.98;102497.74;1798027;77;25849;-60
2022/12/01 05:29:12;;;;;;;30.02;12.70;;;;;;;0.51;73.37;102496.81;1822693;78;28604;-61
2022/12/01 05:31:39;;;;;;;31.07;13.38;;;;;;;0.55;73.26;102498.51;1826839;78;25831;-60
2022/12/01 05:34:07;;;;;;;25.02;13.50;;;;;;;0.56;73.47;102502.02;1822031;78;25784;-61
2022/12/01 05:36:34;;;;;;;34.23;14.20;;;;;;;0.59;72.89;102499.33;1822061;78;25787;-61
2022/12/01 05:39:01;;;;;;;25.80;12.90;;;;;;;0.58;72.25;102513.46;1822713;78;25805;-61
2022/12/01 05:41:27;;;;;;;25.17;13.98;;;;;;;0.54;72.49;102515.77;1800406;78;27272;-61
2022/12/01 05:43:54;;;;;;;26.33;13.60;;;;;;;0.49;72.20;102518.93;1822551;78;25770;-60
2022/12/01 05:46:21;;;;;;;24.92;13.05;;;;;;;0.42;72.22;102515.08;1811513;78;25768;-61
2022/12/01 05:48:48;;;;;;;28.15;14.15;;;;;;;0.40;72.39;102516.88;1792715;80;25843;-61
2022/12/01 05:51:16;;;;;;;24.85;13.35;;;;;;;0.42;72.84;102523.02;1800812;78;26028;-61
2022/12/01 05:53:44;;;;;;;26.30;13.85;;;;;;;0.50;72.74;102522.00;1809621;77;28147;-60
2022/12/01 05:56:11;;;;;;;26.20;13.15;;;;;;;0.52;73.00;102526.83;1822546;78;26673;-61
2022/12/01 05:58:38;;;;;;;21.60;13.90;;;;;;;0.57;72.90;102527.17;1822655;78;25750;-61
2022/12/01 06:01:05;;;;;;;25.17;13.60;;;;;;;0.60;72.67;102532.39;1827278;77;26614;-61
2022/12/01 06:03:32;;;;;;;23.90;13.30;;;;;;;0.62;72.57;102521.79;1822678;78;25907;-61
2022/12/01 06:05:58;;;;;;;24.15;13.53;;;;;;;0.62;72.44;102533.24;1825212;78;28157;-61
2022/12/01 06:08:26;;;;;;;24.47;13.05;;;;;;;0.65;72.21;102531.45;1819978;78;25757;-61
2022/12/01 06:10:52;;;;;;;25.08;12.80;;;;;;;0.65;72.06;102524.36;1826757;78;25838;-61
2022/12/01 06:13:19;;;;;;;26.85;13.22;;;;;;;0.62;71.60;102527.95;1827224;77;25763;-61
2022/12/01 06:15:58;;;;;;;27.37;12.88;;;;;;;0.58;71.70;102526.70;1812455;78;25756;-61
2022/12/01 06:18:27;;;;;;;25.43;12.95;;;;;;;0.54;71.26;102533.84;1802375;78;27580;-62
2022/12/01 06:20:53;;;;;;;25.00;13.90;;;;;;;0.47;71.44;102533.53;1809375;78;25807;-61
2022/12/01 06:23:20;;;;;;;23.38;12.10;;;;;;;0.42;71.38;102519.48;1820220;77;25721;-61
2022/12/01 06:25:47;;;;;;;37.15;13.58;;;;;;;0.43;71.40;102521.23;1817786;77;26402;-61
2022/12/01 06:28:14;;;;;;;35.28;14.68;;;;;;;0.39;71.36;102519.09;1792244;78;25789;-62
2022/12/01 06:30:41;;;;;;;26.75;12.13;;;;;;;0.40;71.40;102527.92;1812030;78;27426;-61
2022/12/01 06:33:08;;;;;;;30.52;14.83;;;;;;;0.39;71.12;102529.69;1815900;78;25736;-61
2022/12/01 06:35:35;;;;;;;23.77;14.25;;;;;;;0.39;70.93;102528.36;1815745;77;25793;-61
2022/12/01 06:38:02;;;;;;;28.95;13.25;;;;;;;0.34;71.09;102522.72;1816072;79;25853;-62
2022/12/01 06:40:29;;;;;;;29.85;12.78;;;;;;;0.35;71.19;102519.17;1815408;78;25417;-61
2022/12/01 06:43:04;;;;;;;31.35;13.75;;;;;;;0.35;71.48;102513.45;1815725;78;27466;-61
2022/12/01 06:45:31;;;;;;;25.82;13.88;;;;;;;0.34;71.54;102520.96;1786215;79;25973;-62
2022/12/01 06:47:58;;;;;;;32.38;16.55;;;;;;;0.34;71.68;102509.48;1804094;78;25777;-61
2022/12/01 06:50:25;;;;;;;27.98;15.68;;;;;;;0.37;71.75;102509.44;1796278;78;25785;-62
2022/12/01 06:52:54;;;;;;;26.25;14.28;;;;;;;0.40;71.71;102511.58;1815113;78;25730;-61
2022/12/01 06:55:21;;;;;;;25.23;14.50;;;;;;;0.40;71.74;102516.02;1803313;77;27586;-61
2022/12/01 06:57:48;;;;;;;25.77;14.10;;;;;;;0.43;71.91;102522.56;1786392;80;25707;-62
2022/12/01 07:00:17;;;;;;;27.13;13.00;;;;;;;0.45;71.77;102517.65;1813853;77;25708;-62
2022/12/01 07:02:44;;;;;;;22.77;11.48;;;;;;;0.44;71.65;102524.30;1814808;77;25778;-62
2022/12/01 07:05:12;;;;;;;23.15;12.00;;;;;;;0.41;71.25;102525.24;1815386;78;25686;-62
2022/12/01 07:07:39;;;;;;;22.48;10.85;;;;;;;0.41;71.50;102529.64;1820034;78;27623;-62
2022/12/01 07:10:08;;;;;;;25.12;11.57;;;;;;;0.40;71.56;102529.25;1815992;78;25718;-62
2022/12/01 07:12:36;;;;;;;22.73;11.08;;;;;;;0.38;71.51;102533.69;1801859;78;25817;-62
2022/12/01 07:15:07;;;;;;;39.73;12.40;;;;;;;0.36;71.61;102537.67;1820548;78;25816;-62
2022/12/01 07:17:35;;;;;;;29.50;12.07;;;;;;;0.35;71.79;102543.00;1816213;79;25768;-62
2022/12/01 07:20:03;;;;;;;29.37;11.65;;;;;;;0.35;71.75;102537.70;1819173;78;28312;-62
2022/12/01 07:22:32;;;;;;;25.02;12.10;;;;;;;0.40;71.49;102541.17;1804706;78;25698;-62
2022/12/01 07:24:59;;;;;;;25.62;11.70;;;;;;;0.42;71.51;102532.72;1803321;78;26274;-62
2022/12/01 07:27:31;;;;;;;35.92;11.30;;;;;;;0.49;71.24;102535.70;1807665;78;25963;-62
2022/12/01 07:29:57;;;;;;;24.98;13.75;;;;;;;0.55;71.37;102529.40;1813325;78;25706;-62
2022/12/01 07:32:24;;;;;;;24.63;11.05;;;;;;;0.60;71.09;102527.56;1826876;78;27314;-61
2022/12/01 07:34:51;;;;;;;28.75;9.93;;;;;;;0.65;70.37;102524.83;1823349;78;25832;-62
2022/12/01 07:37:17;;;;;;;22.82;10.50;;;;;;;0.67;70.76;102524.35;1820087;78;25726;-62
2022/12/01 07:39:44;;;;;;;20.12;10.08;;;;;;;0.74;71.07;102526.84;1824906;78;25714;-62
2022/12/01 07:42:11;;;;;;;27.10;9.58;;;;;;;0.82;70.37;102517.86;1792883;79;25668;-62
2022/12/01 07:44:37;;;;;;;22.58;10.48;;;;;;;0.75;69.35;102511.83;1809741;78;27705;-62
2022/12/01 07:47:04;;;;;;;17.98;9.60;;;;;;;0.71;69.98;102516.32;1825616;77;25772;-62
2022/12/01 07:49:32;;;;;;;26.97;11.85;;;;;;;0.74;70.13;102515.38;1804372;78;25813;-62
2022/12/01 07:51:59;;;;;;;28.70;10.75;;;;;;;0.80;70.53;102509.09;1811114;77;25819;-61
2022/12/01 07:54:25;;;;;;;23.70;11.22;;;;;;;0.86;70.25;102502.34;1808104;78;25714;-62
2022/12/01 07:56:53;;;;;;;21.12;9.95;;;;;;;0.90;70.56;102507.55;1801073;77;27478;-62
2022/12/01 07:59:20;;;;;;;28.65;11.28;;;;;;;0.96;70.10;102514.50;1818245;78;27172;-61
2022/12/01 08:01:47;;;;;;;27.50;11.60;;;;;;;0.96;69.99;102513.61;1822412;77;25720;-62
2022/12/01 08:04:14;;;;;;;24.50;10.93;;;;;;;0.99;70.16;102529.00;1833823;77;25795;-62
2022/12/01 08:06:41;;;;;;;21.68;10.35;;;;;;;0.96;68.97;102527.75;1841235;77;25694;-61
2022/12/01 08:09:08;;;;;;;19.48;9.55;;;;;;;0.90;68.84;102526.09;1829313;78;28119;-62
2022/12/01 08:11:35;;;;;;;25.50;10.00;;;;;;;0.87;69.43;102523.49;1822729;77;25709;-62
2022/12/01 08:14:02;;;;;;;28.23;11.25;;;;;;;0.88;69.64;102533.19;1822498;78;25818;-61
2022/12/01 08:16:30;;;;;;;24.10;9.70;;;;;;;0.87;69.63;102522.63;1800747;78;25782;-63
2022/12/01 08:18:57;;;;;;;22.65;10.40;;;;;;;0.87;69.79;102515.55;1823635;77;26171;-62
2022/12/01 08:21:23;;;;;;;27.98;10.98;;;;;;;0.91;69.96;102510.63;1822671;78;27443;-61
2022/12/01 08:23:57;;;;;;;23.85;10.38;;;;;;;0.97;69.97;102505.66;1822453;78;25796;-61
2022/12/01 08:26:26;;;;;;;20.77;9.38;;;;;;;0.99;69.57;102508.27;1798174;78;26544;-62
2022/12/01 08:28:53;;;;;;;25.62;9.03;;;;;;;1.00;69.04;102508.22;1830089;77;25877;-62
2022/12/01 08:31:27;;;;;;;27.67;9.98;;;;;;;0.98;68.85;102500.77;1833641;77;25729;-62
2022/12/01 08:33:55;;;;;;;23.87;11.35;;;;;;;1.00;68.73;102503.38;1812867;77;28267;-62
2022/12/01 08:36:23;;;;;;;23.98;9.38;;;;;;;0.97;69.19;102500.78;1793033;78;25783;-61
2022/12/01 08:38:53;;;;;;;22.45;9.65;;;;;;;0.99;69.06;102486.59;1786484;79;25694;-61
2022/12/01 08:41:25;;;;;;;17.30;10.30;;;;;;;1.01;69.13;102486.58;1823495;77;25761;-63
2022/12/01 08:43:52;;;;;;;21.77;11.45;;;;;;;1.07;69.23;102485.12;1786582;78;25985;-62
2022/12/01 08:46:20;;;;;;;25.68;10.38;;;;;;;1.12;69.55;102481.05;1786602;78;27381;-61
2022/12/01 08:48:47;;;;;;;20.82;10.93;;;;;;;1.15;69.26;102481.84;1793466;78;25777;-61
2022/12/01 08:51:19;;;;;;;20.82;10.58;;;;;;;1.17;68.30;102486.67;1822193;77;25670;-62
2022/12/01 08:53:49;;;;;;;24.75;10.32;;;;;;;1.11;68.71;102489.46;1818462;77;27827;-62
2022/12/01 08:56:24;;;;;;;29.80;11.28;;;;;;;1.13;68.69;102489.42;1795917;78;25757;-62
2022/12/01 08:58:53;;;;;;;22.17;10.60;;;;;;;1.05;68.39;102485.16;1786823;80;27487;-61
2022/12/01 09:01:21;;;;;;;21.27;10.18;;;;;;;1.06;68.73;102488.23;1813076;78;25726;-61
2022/12/01 09:04:03;;;;;;;26.40;10.35;;;;;;;1.10;68.94;102490.37;1812797;78;25769;-62
2022/12/01 09:06:19;;;;;;;21.75;11.25;;;;;;;1.15;68.95;102495.57;1792972;78;25931;-62
2022/12/01 09:08:46;;;;;;;17.75;10.58;;;;;;;1.09;68.27;102482.84;1807901;78;25783;-61
2022/12/01 09:11:18;;;;;;;16.85;10.00;;;;;;;1.04;68.42;102483.41;1820368;78;27459;-61
2022/12/01 09:13:46;;;;;;;17.67;10.23;;;;;;;1.05;68.25;102485.59;1815179;78;25828;-61
2022/12/01 09:16:16;;;;;;;19.25;9.35;;;;;;;1.05;68.19;102491.79;1796173;78;25569;-61
2022/12/01 09:18:45;;;;;;;24.60;11.22;;;;;;;1.06;68.26;102484.70;1813013;78;25983;-62
2022/12/01 09:21:16;;;;;;;20.70;10.45;;;;;;;1.07;68.31;102485.12;1817748;77;25761;-61
2022/12/01 09:23:44;;;;;;;22.87;10.95;;;;;;;1.08;67.99;102468.31;1822830;78;27429;-62
2022/12/01 09:26:16;;;;;;;19.17;10.10;;;;;;;1.06;67.84;102470.12;1820570;78;25670;-61
2022/12/01 09:28:41;;;;;;;22.20;10.48;;;;;;;1.05;68.20;102467.05;1798694;77;25774;-61
2022/12/01 09:31:10;;;;;;;31.70;11.03;;;;;;;1.05;68.02;102471.02;1795116;78;25795;-62
2022/12/01 09:33:39;;;;;;;17.32;10.78;;;;;;;1.03;67.97;102467.08;1824953;77;25818;-63
2022/12/01 09:36:08;;;;;;;33.23;11.70;;;;;;;0.98;68.08;102477.36;1822481;78;27546;-64
2022/12/01 09:38:37;;;;;;;23.95;11.28;;;;;;;0.96;68.21;102476.51;1796340;78;25794;-61
2022/12/01 09:41:28;;;;;;;21.00;10.40;;;;;;;0.93;67.89;102470.83;1817350;78;25832;-63
2022/12/01 09:44:19;;;;;;;21.93;10.00;;;;;;;0.87;67.95;102470.97;1820081;77;25814;-63
2022/12/01 09:46:58;;;;;;;22.22;11.55;;;;;;;0.85;68.46;102477.59;1819727;77;25818;-62
2022/12/01 09:49:42;;;;;;;24.87;12.07;;;;;;;0.87;68.56;102471.83;1818452;78;29765;-62
2022/12/01 09:52:17;;;;;;;20.32;10.93;;;;;;;0.86;68.54;102470.55;1819060;78;25920;-62
2022/12/01 09:54:46;;;;;;;29.55;12.37;;;;;;;0.89;68.78;102471.34;1810932;78;26249;-62
2022/12/01 09:57:27;;;;;;;22.65;11.88;;;;;;;0.93;68.68;102460.23;1803990;78;25759;-62
2022/12/01 09:59:55;;;;;;;22.32;11.20;;;;;;;0.93;67.88;102461.13;1816294;78;26175;-63
2022/12/01 10:02:30;;;;;;;24.30;11.50;;;;;;;0.88;68.19;102452.38;1826073;78;28221;-63
2022/12/01 10:05:02;;;;;;;21.90;10.63;;;;;;;0.84;68.32;102448.50;1792929;78;25820;-63
2022/12/01 10:07:37;;;;;;;17.77;9.80;;;;;;;0.86;68.43;102442.25;1793885;80;25510;-62
2022/12/01 10:10:21;;;;;;;19.90;10.98;;;;;;;0.85;68.32;102443.16;1806756;78;25860;-63
2022/12/01 10:12:48;;;;;;;;;;;;;;;0.82;68.58;102445.00;1828705;78;25830;-63
2022/12/01 10:15:45;;;;;;;20.92;11.73;;;;;;;0.83;68.46;102441.45;1827521;77;27674;-63
2022/12/01 10:18:26;;;;;;;28.85;14.85;;;;;;;0.82;68.68;102441.02;1800777;78;25920;-62
2022/12/01 10:21:27;;;;;;;24.52;13.18;;;;;;;0.85;68.69;102444.48;1813819;78;25717;-62
2022/12/01 10:24:08;;;;;;;21.27;11.10;;;;;;;0.87;68.59;102441.35;1802031;78;25918;-62
2022/12/01 10:27:14;;;;;;;19.60;12.15;;;;;;;0.91;69.00;102438.19;1788669;78;25766;-62
2022/12/01 10:29:51;;;;;;;21.65;11.40;;;;;;;0.96;68.67;102440.73;1820343;78;27620;-62
2022/12/01 10:32:31;;;;;;;23.80;12.05;;;;;;;0.92;68.18;102437.28;1823676;77;25655;-62
2022/12/01 10:34:58;;;;;;;25.75;12.88;;;;;;;0.85;68.23;102436.53;1860278;77;25729;-62
2022/12/01 10:37:28;;;;;;;24.07;13.20;;;;;;;0.85;68.48;102434.34;1830632;77;27104;-62
2022/12/01 10:39:58;;;;;;;30.08;14.10;;;;;;;0.88;68.81;102430.32;1831498;76;25731;-62
2022/12/01 10:42:47;;;;;;;32.75;13.50;;;;;;;0.90;68.58;102424.51;1813633;78;27392;-62
2022/12/01 10:45:27;;;;;;;25.08;13.88;;;;;;;0.85;68.76;102419.31;1809382;78;25778;-62
2022/12/01 10:48:19;;;;;;;27.17;13.90;;;;;;;0.81;68.79;102417.64;1808415;78;25716;-62
2022/12/01 10:50:51;;;;;;;22.62;13.65;;;;;;;0.76;69.10;102420.39;1819614;78;26377;-63
2022/12/01 10:53:35;;;;;;;22.17;13.30;;;;;;;0.73;69.11;102428.39;1803536;78;25770;-62
2022/12/01 10:56:20;;;;;;;27.02;12.40;;;;;;;0.76;69.52;102424.83;1824941;78;28131;-62
2022/12/01 10:58:55;;;;;;;30.90;12.82;;;;;;;0.73;69.75;102423.56;1797137;78;25721;-62
2022/12/01 11:01:30;;;;;;;34.85;13.78;;;;;;;0.67;69.72;102417.94;1816855;78;25991;-62
2022/12/01 11:04:05;;;;;;;28.67;14.90;;;;;;;0.65;69.78;102422.38;1795191;78;25810;-62
2022/12/01 11:06:39;;;;;;;26.95;13.88;;;;;;;0.63;70.17;102414.91;1819408;78;25774;-62
2022/12/01 11:09:10;;;;;;;24.87;12.30;;;;;;;0.60;70.34;102412.34;1826998;77;27450;-62
2022/12/01 11:11:39;;;;;;;28.98;15.15;;;;;;;0.62;70.72;102416.70;1796589;77;25815;-63
2022/12/01 11:14:20;;;;;;;25.45;14.80;;;;;;;0.60;70.99;102414.53;1822521;78;25647;-62
2022/12/01 11:16:53;;;;;;;28.60;12.95;;;;;;;0.57;70.92;102408.42;1821150;77;25756;-63
2022/12/01 11:19:33;;;;;;;29.72;14.47;;;;;;;0.58;71.00;102405.73;1765973;80;26504;-63
2022/12/01 11:22:20;;;;;;;26.07;15.13;;;;;;;0.64;71.21;102401.23;1807343;78;28261;-62
2022/12/01 11:25:01;;;;;;;24.92;13.62;;;;;;;0.69;71.08;102404.64;1819870;78;25647;-62
2022/12/01 11:27:39;;;;;;;27.37;13.90;;;;;;;0.70;70.88;102397.13;1822082;78;26650;-62
2022/12/01 11:30:28;;;;;;;27.65;13.35;;;;;;;0.67;70.73;102398.53;1818098;78;27874;-62
2022/12/01 11:32:59;;;;;;;23.92;15.28;;;;;;;0.70;71.07;102396.69;1816117;77;25806;-61
2022/12/01 11:35:30;;;;;;;27.82;12.93;;;;;;;0.74;70.16;102390.88;1785984;79;28347;-62
2022/12/01 11:38:01;;;;;;;25.52;13.10;;;;;;;0.74;70.33;102391.73;1811056;77;26161;-62
2022/12/01 11:40:51;;;;;;;50.75;22.32;;;;;;;0.80;70.05;102388.08;1807865;78;25682;-62
2022/12/01 11:43:28;;;;;;;58.08;27.87;;;;;;;0.77;70.00;102382.41;1815370;78;26385;-62
2022/12/01 11:45:59;;;;;;;31.12;15.10;;;;;;;0.87;70.44;102375.58;1815692;78;25729;-63
2022/12/01 11:48:30;;;;;;;33.58;14.47;;;;;;;1.00;70.71;102378.83;1816979;78;27601;-63
2022/12/01 11:51:10;;;;;;;21.48;12.45;;;;;;;1.10;70.29;102380.36;1791193;78;25825;-63